Terminal Aerodrome Forecast
Issued by NWS

Home | Current Version | Previous Version | Text Only | Print | Product List | Glossary On
Versions: 1 2 3 4 5 6 7 8 9 10 11 12 13 14 15 16 17
000
FTUS45 KFGZ 170500
TAFGCN
TAF
KGCN 170538Z 1706/1806 VRB04KT P6SM FEW070 BKN200
      TEMPO 1706/1710 -SHRA BKN060
     FM171500 10007KT P6SM SCT060 BKN140
      TEMPO 1717/1721 4SM -TSRA BKN030CB
     FM172100 VRB06KT P6SM SCT060 PROB30 1721/1802 -SHRA BKN050=

USA.gov is the U.S. government's official web portal to all federal, state and local government web resources and services.